sensor_id;sensor_type;location;lat;lon;timestamp;P1;durP1;ratioP1;P2;durP2;ratioP2
52574;SDS011;38468;48.114;-1.684;2023-02-28T00:01:02;9.57;;;5.97;;
52574;SDS011;38468;48.114;-1.684;2023-02-28T00:03:04;11.95;;;5.53;;
52574;SDS011;38468;48.114;-1.684;2023-02-28T00:05:05;7.90;;;4.78;;
52574;SDS011;38468;48.114;-1.684;2023-02-28T00:07:07;11.27;;;5.63;;
52574;SDS011;38468;48.114;-1.684;2023-02-28T00:09:08;8.40;;;4.57;;
52574;SDS011;38468;48.114;-1.684;2023-02-28T00:11:12;8.55;;;4.90;;
52574;SDS011;38468;48.114;-1.684;2023-02-28T00:13:15;8.95;;;5.32;;
52574;SDS011;38468;48.114;-1.684;2023-02-28T00:15:17;9.43;;;5.28;;
52574;SDS011;38468;48.114;-1.684;2023-02-28T00:17:19;8.77;;;5.20;;
52574;SDS011;38468;48.114;-1.684;2023-02-28T00:19:22;8.00;;;4.53;;
52574;SDS011;38468;48.114;-1.684;2023-02-28T00:21:23;12.15;;;5.88;;
52574;SDS011;38468;48.114;-1.684;2023-02-28T00:23:24;7.95;;;5.43;;
52574;SDS011;38468;48.114;-1.684;2023-02-28T00:25:29;7.05;;;5.35;;
52574;SDS011;38468;48.114;-1.684;2023-02-28T00:27:33;9.98;;;5.55;;
52574;SDS011;38468;48.114;-1.684;2023-02-28T00:29:36;10.40;;;5.55;;
52574;SDS011;38468;48.114;-1.684;2023-02-28T00:31:37;9.88;;;5.07;;
52574;SDS011;38468;48.114;-1.684;2023-02-28T00:33:38;7.13;;;5.03;;
52574;SDS011;38468;48.114;-1.684;2023-02-28T00:35:38;12.75;;;5.07;;
52574;SDS011;38468;48.114;-1.684;2023-02-28T00:37:39;15.20;;;5.57;;
52574;SDS011;38468;48.114;-1.684;2023-02-28T00:39:40;10.70;;;5.20;;
52574;SDS011;38468;48.114;-1.684;2023-02-28T00:41:41;11.20;;;5.47;;
52574;SDS011;38468;48.114;-1.684;2023-02-28T00:43:42;10.38;;;5.15;;
52574;SDS011;38468;48.114;-1.684;2023-02-28T00:45:43;7.45;;;4.90;;
52574;SDS011;38468;48.114;-1.684;2023-02-28T00:47:44;9.65;;;6.28;;
52574;SDS011;38468;48.114;-1.684;2023-02-28T00:51:47;6.25;;;4.57;;
52574;SDS011;38468;48.114;-1.684;2023-02-28T00:53:47;14.82;;;5.85;;
52574;SDS011;38468;48.114;-1.684;2023-02-28T00:55:48;8.13;;;5.40;;
52574;SDS011;38468;48.114;-1.684;2023-02-28T00:57:50;8.95;;;5.78;;
52574;SDS011;38468;48.114;-1.684;2023-02-28T00:59:51;8.45;;;4.95;;
52574;SDS011;38468;48.114;-1.684;2023-02-28T01:01:54;8.60;;;5.18;;
52574;SDS011;38468;48.114;-1.684;2023-02-28T01:03:54;7.82;;;5.82;;
52574;SDS011;38468;48.114;-1.684;2023-02-28T01:05:55;7.47;;;4.95;;
52574;SDS011;38468;48.114;-1.684;2023-02-28T01:07:56;6.15;;;4.70;;
52574;SDS011;38468;48.114;-1.684;2023-02-28T01:09:56;10.38;;;5.22;;
52574;SDS011;38468;48.114;-1.684;2023-02-28T01:11:57;5.65;;;4.35;;
52574;SDS011;38468;48.114;-1.684;2023-02-28T01:13:58;9.32;;;5.15;;
52574;SDS011;38468;48.114;-1.684;2023-02-28T01:15:59;7.10;;;4.47;;
52574;SDS011;38468;48.114;-1.684;2023-02-28T01:17:59;7.68;;;4.35;;
52574;SDS011;38468;48.114;-1.684;2023-02-28T01:20:00;8.25;;;5.18;;
52574;SDS011;38468;48.114;-1.684;2023-02-28T01:22:01;7.50;;;5.18;;
52574;SDS011;38468;48.114;-1.684;2023-02-28T01:24:05;5.93;;;4.70;;
52574;SDS011;38468;48.114;-1.684;2023-02-28T01:26:08;9.10;;;5.50;;
52574;SDS011;38468;48.114;-1.684;2023-02-28T01:28:13;6.63;;;5.00;;
52574;SDS011;38468;48.114;-1.684;2023-02-28T01:30:14;7.05;;;5.43;;
52574;SDS011;38468;48.114;-1.684;2023-02-28T01:32:14;12.02;;;5.53;;
52574;SDS011;38468;48.114;-1.684;2023-02-28T01:34:15;7.70;;;5.20;;
52574;SDS011;38468;48.114;-1.684;2023-02-28T01:36:20;8.73;;;4.57;;
52574;SDS011;38468;48.114;-1.684;2023-02-28T01:38:22;6.68;;;4.75;;
52574;SDS011;38468;48.114;-1.684;2023-02-28T01:40:22;6.40;;;4.88;;
52574;SDS011;38468;48.114;-1.684;2023-02-28T01:42:23;7.45;;;4.18;;
52574;SDS011;38468;48.114;-1.684;2023-02-28T01:47:02;8.85;;;4.60;;
52574;SDS011;38468;48.114;-1.684;2023-02-28T01:49:07;12.88;;;5.03;;
52574;SDS011;38468;48.114;-1.684;2023-02-28T01:51:13;12.05;;;5.63;;
52574;SDS011;38468;48.114;-1.684;2023-02-28T01:53:19;5.00;;;4.28;;
52574;SDS011;38468;48.114;-1.684;2023-02-28T01:55:26;8.35;;;5.85;;
52574;SDS011;38468;48.114;-1.684;2023-02-28T01:57:29;7.55;;;5.47;;
52574;SDS011;38468;48.114;-1.684;2023-02-28T01:59:39;8.15;;;4.55;;
52574;SDS011;38468;48.114;-1.684;2023-02-28T02:01:46;7.68;;;4.35;;
52574;SDS011;38468;48.114;-1.684;2023-02-28T02:03:54;10.00;;;5.38;;
52574;SDS011;38468;48.114;-1.684;2023-02-28T02:06:00;8.80;;;5.05;;
52574;SDS011;38468;48.114;-1.684;2023-02-28T02:08:06;7.25;;;5.25;;
52574;SDS011;38468;48.114;-1.684;2023-02-28T02:10:20;6.63;;;4.65;;
52574;SDS011;38468;48.114;-1.684;2023-02-28T02:12:45;6.75;;;4.60;;
52574;SDS011;38468;48.114;-1.684;2023-02-28T02:15:12;8.48;;;4.43;;
52574;SDS011;38468;48.114;-1.684;2023-02-28T02:17:35;12.57;;;5.47;;
52574;SDS011;38468;48.114;-1.684;2023-02-28T02:27:17;11.05;;;5.45;;
52574;SDS011;38468;48.114;-1.684;2023-02-28T02:34:51;9.80;;;4.68;;
52574;SDS011;38468;48.114;-1.684;2023-02-28T02:39:06;7.80;;;4.78;;
52574;SDS011;38468;48.114;-1.684;2023-02-28T02:41:35;7.25;;;4.93;;
52574;SDS011;38468;48.114;-1.684;2023-02-28T02:43:56;5.65;;;4.72;;
52574;SDS011;38468;48.114;-1.684;2023-02-28T02:46:04;5.03;;;4.40;;
52574;SDS011;38468;48.114;-1.684;2023-02-28T02:48:11;9.43;;;5.40;;
52574;SDS011;38468;48.114;-1.684;2023-02-28T02:50:17;12.68;;;6.72;;
52574;SDS011;38468;48.114;-1.684;2023-02-28T02:52:25;8.82;;;5.53;;
52574;SDS011;38468;48.114;-1.684;2023-02-28T02:54:38;5.85;;;4.90;;
52574;SDS011;38468;48.114;-1.684;2023-02-28T02:56:44;6.75;;;5.13;;
52574;SDS011;38468;48.114;-1.684;2023-02-28T02:58:48;7.95;;;5.85;;
52574;SDS011;38468;48.114;-1.684;2023-02-28T03:00:52;8.90;;;6.45;;
52574;SDS011;38468;48.114;-1.684;2023-02-28T03:02:56;5.35;;;4.82;;
52574;SDS011;38468;48.114;-1.684;2023-02-28T03:04:58;8.60;;;5.97;;
52574;SDS011;38468;48.114;-1.684;2023-02-28T03:07:02;7.63;;;5.43;;
52574;SDS011;38468;48.114;-1.684;2023-02-28T03:09:03;8.00;;;5.63;;
52574;SDS011;38468;48.114;-1.684;2023-02-28T03:11:05;10.05;;;5.20;;
52574;SDS011;38468;48.114;-1.684;2023-02-28T03:15:44;6.37;;;4.93;;
52574;SDS011;38468;48.114;-1.684;2023-02-28T03:18:10;8.55;;;5.97;;
52574;SDS011;38468;48.114;-1.684;2023-02-28T03:24:56;8.25;;;6.05;;
52574;SDS011;38468;48.114;-1.684;2023-02-28T03:27:36;6.78;;;5.15;;
52574;SDS011;38468;48.114;-1.684;2023-02-28T03:29:39;6.10;;;5.13;;
52574;SDS011;38468;48.114;-1.684;2023-02-28T03:34:19;9.70;;;6.05;;
52574;SDS011;38468;48.114;-1.684;2023-02-28T03:36:27;9.65;;;6.05;;
52574;SDS011;38468;48.114;-1.684;2023-02-28T03:40:33;7.43;;;5.82;;
52574;SDS011;38468;48.114;-1.684;2023-02-28T03:42:38;9.93;;;6.30;;
52574;SDS011;38468;48.114;-1.684;2023-02-28T03:44:42;9.13;;;5.13;;
52574;SDS011;38468;48.114;-1.684;2023-02-28T03:46:53;7.55;;;5.53;;
52574;SDS011;38468;48.114;-1.684;2023-02-28T03:51:06;7.88;;;5.90;;
52574;SDS011;38468;48.114;-1.684;2023-02-28T03:53:25;9.23;;;6.00;;
52574;SDS011;38468;48.114;-1.684;2023-02-28T03:55:34;7.18;;;5.65;;
52574;SDS011;38468;48.114;-1.684;2023-02-28T03:59:47;9.25;;;5.88;;
52574;SDS011;38468;48.114;-1.684;2023-02-28T04:02:24;8.65;;;6.68;;
52574;SDS011;38468;48.114;-1.684;2023-02-28T04:04:25;8.65;;;6.05;;
52574;SDS011;38468;48.114;-1.684;2023-02-28T04:06:26;13.27;;;6.68;;
52574;SDS011;38468;48.114;-1.684;2023-02-28T04:08:27;9.77;;;6.40;;
52574;SDS011;38468;48.114;-1.684;2023-02-28T04:10:27;10.00;;;7.10;;
52574;SDS011;38468;48.114;-1.684;2023-02-28T04:12:28;8.02;;;6.55;;
52574;SDS011;38468;48.114;-1.684;2023-02-28T04:14:29;9.38;;;6.13;;
52574;SDS011;38468;48.114;-1.684;2023-02-28T04:16:30;11.25;;;6.63;;
52574;SDS011;38468;48.114;-1.684;2023-02-28T04:18:31;10.57;;;6.43;;
52574;SDS011;38468;48.114;-1.684;2023-02-28T04:20:32;7.78;;;6.20;;
52574;SDS011;38468;48.114;-1.684;2023-02-28T04:22:32;8.55;;;6.82;;
52574;SDS011;38468;48.114;-1.684;2023-02-28T04:24:33;10.18;;;7.63;;
52574;SDS011;38468;48.114;-1.684;2023-02-28T04:26:35;8.93;;;6.90;;
52574;SDS011;38468;48.114;-1.684;2023-02-28T04:28:37;12.55;;;7.28;;
52574;SDS011;38468;48.114;-1.684;2023-02-28T04:30:38;7.78;;;6.05;;
52574;SDS011;38468;48.114;-1.684;2023-02-28T04:32:39;8.23;;;6.97;;
52574;SDS011;38468;48.114;-1.684;2023-02-28T04:34:39;7.72;;;5.97;;
52574;SDS011;38468;48.114;-1.684;2023-02-28T04:36:40;8.27;;;6.82;;
52574;SDS011;38468;48.114;-1.684;2023-02-28T04:38:41;9.52;;;6.55;;
52574;SDS011;38468;48.114;-1.684;2023-02-28T04:40:41;8.85;;;6.70;;
52574;SDS011;38468;48.114;-1.684;2023-02-28T04:42:42;10.70;;;7.05;;
52574;SDS011;38468;48.114;-1.684;2023-02-28T04:44:42;16.90;;;6.88;;
52574;SDS011;38468;48.114;-1.684;2023-02-28T04:46:43;8.30;;;7.15;;
52574;SDS011;38468;48.114;-1.684;2023-02-28T04:48:47;9.65;;;6.90;;
52574;SDS011;38468;48.114;-1.684;2023-02-28T04:50:48;9.57;;;6.90;;
52574;SDS011;38468;48.114;-1.684;2023-02-28T04:52:48;11.70;;;6.97;;
52574;SDS011;38468;48.114;-1.684;2023-02-28T04:54:49;8.38;;;6.25;;
52574;SDS011;38468;48.114;-1.684;2023-02-28T04:56:50;10.75;;;7.40;;
52574;SDS011;38468;48.114;-1.684;2023-02-28T04:58:50;11.27;;;6.95;;
52574;SDS011;38468;48.114;-1.684;2023-02-28T05:00:53;10.35;;;8.20;;
52574;SDS011;38468;48.114;-1.684;2023-02-28T05:02:54;10.70;;;7.10;;
52574;SDS011;38468;48.114;-1.684;2023-02-28T05:04:57;9.63;;;6.75;;
52574;SDS011;38468;48.114;-1.684;2023-02-28T05:06:58;11.98;;;7.72;;
52574;SDS011;38468;48.114;-1.684;2023-02-28T05:08:58;8.60;;;7.22;;
52574;SDS011;38468;48.114;-1.684;2023-02-28T05:11:00;10.65;;;8.10;;
52574;SDS011;38468;48.114;-1.684;2023-02-28T05:13:01;10.43;;;7.65;;
52574;SDS011;38468;48.114;-1.684;2023-02-28T05:15:02;13.88;;;9.13;;
52574;SDS011;38468;48.114;-1.684;2023-02-28T05:17:04;9.32;;;7.72;;
52574;SDS011;38468;48.114;-1.684;2023-02-28T05:19:05;9.85;;;6.95;;
52574;SDS011;38468;48.114;-1.684;2023-02-28T05:21:06;12.05;;;8.60;;
52574;SDS011;38468;48.114;-1.684;2023-02-28T05:23:23;18.80;;;8.45;;
52574;SDS011;38468;48.114;-1.684;2023-02-28T05:25:24;11.75;;;8.15;;
52574;SDS011;38468;48.114;-1.684;2023-02-28T05:27:25;12.18;;;7.90;;
52574;SDS011;38468;48.114;-1.684;2023-02-28T05:29:25;11.85;;;8.00;;
52574;SDS011;38468;48.114;-1.684;2023-02-28T05:31:26;12.40;;;8.07;;
52574;SDS011;38468;48.114;-1.684;2023-02-28T05:33:26;12.43;;;8.77;;
52574;SDS011;38468;48.114;-1.684;2023-02-28T05:35:27;14.15;;;8.18;;
52574;SDS011;38468;48.114;-1.684;2023-02-28T05:37:28;8.75;;;7.35;;
52574;SDS011;38468;48.114;-1.684;2023-02-28T05:39:28;8.70;;;7.75;;
52574;SDS011;38468;48.114;-1.684;2023-02-28T05:41:29;12.45;;;7.88;;
52574;SDS011;38468;48.114;-1.684;2023-02-28T05:43:29;11.35;;;8.93;;
52574;SDS011;38468;48.114;-1.684;2023-02-28T05:45:30;12.38;;;8.40;;
52574;SDS011;38468;48.114;-1.684;2023-02-28T05:47:31;11.18;;;7.90;;
52574;SDS011;38468;48.114;-1.684;2023-02-28T05:49:37;11.15;;;9.15;;
52574;SDS011;38468;48.114;-1.684;2023-02-28T05:51:37;14.18;;;8.35;;
52574;SDS011;38468;48.114;-1.684;2023-02-28T05:53:39;17.05;;;8.90;;
52574;SDS011;38468;48.114;-1.684;2023-02-28T05:55:40;11.45;;;8.88;;
52574;SDS011;38468;48.114;-1.684;2023-02-28T05:57:41;12.98;;;8.43;;
52574;SDS011;38468;48.114;-1.684;2023-02-28T05:59:42;14.77;;;9.32;;
52574;SDS011;38468;48.114;-1.684;2023-02-28T06:01:43;11.73;;;8.50;;
52574;SDS011;38468;48.114;-1.684;2023-02-28T06:03:48;13.68;;;8.70;;
52574;SDS011;38468;48.114;-1.684;2023-02-28T06:05:48;10.80;;;8.40;;
52574;SDS011;38468;48.114;-1.684;2023-02-28T06:07:50;12.00;;;8.57;;
52574;SDS011;38468;48.114;-1.684;2023-02-28T06:09:50;14.63;;;9.48;;
52574;SDS011;38468;48.114;-1.684;2023-02-28T06:11:51;13.40;;;9.18;;
52574;SDS011;38468;48.114;-1.684;2023-02-28T06:13:55;16.25;;;9.38;;
52574;SDS011;38468;48.114;-1.684;2023-02-28T06:16:00;15.85;;;9.82;;
52574;SDS011;38468;48.114;-1.684;2023-02-28T06:18:01;14.35;;;9.75;;
52574;SDS011;38468;48.114;-1.684;2023-02-28T06:20:01;14.70;;;8.77;;
52574;SDS011;38468;48.114;-1.684;2023-02-28T06:22:02;12.13;;;9.15;;
52574;SDS011;38468;48.114;-1.684;2023-02-28T06:24:03;12.90;;;9.85;;
52574;SDS011;38468;48.114;-1.684;2023-02-28T06:26:04;11.50;;;8.18;;
52574;SDS011;38468;48.114;-1.684;2023-02-28T06:28:05;12.80;;;9.43;;
52574;SDS011;38468;48.114;-1.684;2023-02-28T06:30:06;15.48;;;10.15;;
52574;SDS011;38468;48.114;-1.684;2023-02-28T06:32:07;13.25;;;10.80;;
52574;SDS011;38468;48.114;-1.684;2023-02-28T06:34:08;12.13;;;9.23;;
52574;SDS011;38468;48.114;-1.684;2023-02-28T06:36:09;14.27;;;10.07;;
52574;SDS011;38468;48.114;-1.684;2023-02-28T06:38:11;14.63;;;9.82;;
52574;SDS011;38468;48.114;-1.684;2023-02-28T06:40:12;15.15;;;10.07;;
52574;SDS011;38468;48.114;-1.684;2023-02-28T06:42:13;16.10;;;11.25;;
52574;SDS011;38468;48.114;-1.684;2023-02-28T06:44:15;14.15;;;10.90;;
52574;SDS011;38468;48.114;-1.684;2023-02-28T06:46:17;11.43;;;9.95;;
52574;SDS011;38468;48.114;-1.684;2023-02-28T06:48:18;13.73;;;10.15;;
52574;SDS011;38468;48.114;-1.684;2023-02-28T06:50:18;11.07;;;9.50;;
52574;SDS011;38468;48.114;-1.684;2023-02-28T06:52:20;12.82;;;10.52;;
52574;SDS011;38468;48.114;-1.684;2023-02-28T06:54:21;13.55;;;10.15;;
52574;SDS011;38468;48.114;-1.684;2023-02-28T06:56:22;14.80;;;9.63;;
52574;SDS011;38468;48.114;-1.684;2023-02-28T06:58:23;12.93;;;9.80;;
52574;SDS011;38468;48.114;-1.684;2023-02-28T07:00:24;15.48;;;10.43;;
52574;SDS011;38468;48.114;-1.684;2023-02-28T07:02:25;16.05;;;11.82;;
52574;SDS011;38468;48.114;-1.684;2023-02-28T07:04:27;15.95;;;10.93;;
52574;SDS011;38468;48.114;-1.684;2023-02-28T07:06:27;22.40;;;15.23;;
52574;SDS011;38468;48.114;-1.684;2023-02-28T07:08:28;31.95;;;21.45;;
52574;SDS011;38468;48.114;-1.684;2023-02-28T07:10:29;22.33;;;14.35;;
52574;SDS011;38468;48.114;-1.684;2023-02-28T07:12:30;18.63;;;12.40;;
52574;SDS011;38468;48.114;-1.684;2023-02-28T07:14:31;17.27;;;11.32;;
52574;SDS011;38468;48.114;-1.684;2023-02-28T07:16:31;16.42;;;11.40;;
52574;SDS011;38468;48.114;-1.684;2023-02-28T07:18:32;15.07;;;10.63;;
52574;SDS011;38468;48.114;-1.684;2023-02-28T07:20:33;15.88;;;12.40;;
52574;SDS011;38468;48.114;-1.684;2023-02-28T07:22:34;16.85;;;11.38;;
52574;SDS011;38468;48.114;-1.684;2023-02-28T07:24:34;18.27;;;11.77;;
52574;SDS011;38468;48.114;-1.684;2023-02-28T07:26:35;19.48;;;11.82;;
52574;SDS011;38468;48.114;-1.684;2023-02-28T07:28:36;15.57;;;11.43;;
52574;SDS011;38468;48.114;-1.684;2023-02-28T07:30:38;18.58;;;11.80;;
52574;SDS011;38468;48.114;-1.684;2023-02-28T07:32:39;18.93;;;11.60;;
52574;SDS011;38468;48.114;-1.684;2023-02-28T07:34:40;28.35;;;13.32;;
52574;SDS011;38468;48.114;-1.684;2023-02-28T07:36:40;21.58;;;11.27;;
52574;SDS011;38468;48.114;-1.684;2023-02-28T07:38:42;23.90;;;13.25;;
52574;SDS011;38468;48.114;-1.684;2023-02-28T07:40:43;27.45;;;13.65;;
52574;SDS011;38468;48.114;-1.684;2023-02-28T07:42:44;25.55;;;13.80;;
52574;SDS011;38468;48.114;-1.684;2023-02-28T07:44:45;17.83;;;11.65;;
52574;SDS011;38468;48.114;-1.684;2023-02-28T07:46:46;20.25;;;12.52;;
52574;SDS011;38468;48.114;-1.684;2023-02-28T07:48:47;13.43;;;11.32;;
52574;SDS011;38468;48.114;-1.684;2023-02-28T07:50:54;14.93;;;11.73;;
52574;SDS011;38468;48.114;-1.684;2023-02-28T07:52:57;23.17;;;11.30;;
52574;SDS011;38468;48.114;-1.684;2023-02-28T07:56:59;20.27;;;11.80;;
52574;SDS011;38468;48.114;-1.684;2023-02-28T07:58:59;20.33;;;11.90;;
52574;SDS011;38468;48.114;-1.684;2023-02-28T08:01:05;17.75;;;11.82;;
52574;SDS011;38468;48.114;-1.684;2023-02-28T08:03:09;28.00;;;12.45;;
52574;SDS011;38468;48.114;-1.684;2023-02-28T08:05:12;17.40;;;12.43;;
52574;SDS011;38468;48.114;-1.684;2023-02-28T08:07:13;14.05;;;12.00;;
52574;SDS011;38468;48.114;-1.684;2023-02-28T08:09:13;16.25;;;12.00;;
52574;SDS011;38468;48.114;-1.684;2023-02-28T08:11:15;16.05;;;11.43;;
52574;SDS011;38468;48.114;-1.684;2023-02-28T08:13:16;16.58;;;11.77;;
52574;SDS011;38468;48.114;-1.684;2023-02-28T08:15:16;14.60;;;10.68;;
52574;SDS011;38468;48.114;-1.684;2023-02-28T08:17:17;15.45;;;11.60;;
52574;SDS011;38468;48.114;-1.684;2023-02-28T08:19:18;15.23;;;11.63;;
52574;SDS011;38468;48.114;-1.684;2023-02-28T08:21:19;14.52;;;11.57;;
52574;SDS011;38468;48.114;-1.684;2023-02-28T08:23:20;14.38;;;11.02;;
52574;SDS011;38468;48.114;-1.684;2023-02-28T08:25:21;16.35;;;11.50;;
52574;SDS011;38468;48.114;-1.684;2023-02-28T08:27:21;15.90;;;11.40;;
52574;SDS011;38468;48.114;-1.684;2023-02-28T08:29:22;14.20;;;12.20;;
52574;SDS011;38468;48.114;-1.684;2023-02-28T08:31:23;13.82;;;11.65;;
52574;SDS011;38468;48.114;-1.684;2023-02-28T08:33:24;13.77;;;11.85;;
52574;SDS011;38468;48.114;-1.684;2023-02-28T08:35:26;14.80;;;11.68;;
52574;SDS011;38468;48.114;-1.684;2023-02-28T08:37:27;14.20;;;12.15;;
52574;SDS011;38468;48.114;-1.684;2023-02-28T08:39:27;16.88;;;12.05;;
52574;SDS011;38468;48.114;-1.684;2023-02-28T08:41:28;15.30;;;11.38;;
52574;SDS011;38468;48.114;-1.684;2023-02-28T08:43:29;16.35;;;13.45;;
52574;SDS011;38468;48.114;-1.684;2023-02-28T08:45:29;17.05;;;12.05;;
52574;SDS011;38468;48.114;-1.684;2023-02-28T08:47:30;19.05;;;12.27;;
52574;SDS011;38468;48.114;-1.684;2023-02-28T08:49:31;16.15;;;12.52;;
52574;SDS011;38468;48.114;-1.684;2023-02-28T08:51:32;13.35;;;12.02;;
52574;SDS011;38468;48.114;-1.684;2023-02-28T08:53:33;13.18;;;11.77;;
52574;SDS011;38468;48.114;-1.684;2023-02-28T08:55:34;15.13;;;12.43;;
52574;SDS011;38468;48.114;-1.684;2023-02-28T08:57:34;13.98;;;12.02;;
52574;SDS011;38468;48.114;-1.684;2023-02-28T08:59:35;14.50;;;13.00;;
52574;SDS011;38468;48.114;-1.684;2023-02-28T09:01:36;14.52;;;13.05;;
52574;SDS011;38468;48.114;-1.684;2023-02-28T09:03:36;14.13;;;12.70;;
52574;SDS011;38468;48.114;-1.684;2023-02-28T09:05:37;13.77;;;12.30;;
52574;SDS011;38468;48.114;-1.684;2023-02-28T09:07:38;17.98;;;12.93;;
52574;SDS011;38468;48.114;-1.684;2023-02-28T09:09:39;13.73;;;12.00;;
52574;SDS011;38468;48.114;-1.684;2023-02-28T09:11:55;13.82;;;11.70;;
52574;SDS011;38468;48.114;-1.684;2023-02-28T09:13:57;13.23;;;11.98;;
52574;SDS011;38468;48.114;-1.684;2023-02-28T09:18:01;13.57;;;11.88;;
52574;SDS011;38468;48.114;-1.684;2023-02-28T09:20:02;13.43;;;12.02;;
52574;SDS011;38468;48.114;-1.684;2023-02-28T09:22:03;12.13;;;10.93;;
52574;SDS011;38468;48.114;-1.684;2023-02-28T09:24:04;13.35;;;11.98;;
52574;SDS011;38468;48.114;-1.684;2023-02-28T09:26:05;13.98;;;12.57;;
52574;SDS011;38468;48.114;-1.684;2023-02-28T09:28:06;13.13;;;11.80;;
52574;SDS011;38468;48.114;-1.684;2023-02-28T09:30:07;12.93;;;11.07;;
52574;SDS011;38468;48.114;-1.684;2023-02-28T09:32:08;13.25;;;10.55;;
52574;SDS011;38468;48.114;-1.684;2023-02-28T09:34:08;12.85;;;11.45;;
52574;SDS011;38468;48.114;-1.684;2023-02-28T09:36:09;11.77;;;10.57;;
52574;SDS011;38468;48.114;-1.684;2023-02-28T09:38:10;12.30;;;10.82;;
52574;SDS011;38468;48.114;-1.684;2023-02-28T09:40:11;11.43;;;10.02;;
52574;SDS011;38468;48.114;-1.684;2023-02-28T09:42:18;11.95;;;10.75;;
52574;SDS011;38468;48.114;-1.684;2023-02-28T09:44:31;12.43;;;11.15;;
52574;SDS011;38468;48.114;-1.684;2023-02-28T09:46:44;12.80;;;10.57;;
52574;SDS011;38468;48.114;-1.684;2023-02-28T09:48:49;10.90;;;9.90;;
52574;SDS011;38468;48.114;-1.684;2023-02-28T09:50:52;11.15;;;9.93;;
52574;SDS011;38468;48.114;-1.684;2023-02-28T09:53:02;12.32;;;10.70;;
52574;SDS011;38468;48.114;-1.684;2023-02-28T09:55:27;10.77;;;9.77;;
52574;SDS011;38468;48.114;-1.684;2023-02-28T09:57:33;12.05;;;9.32;;
52574;SDS011;38468;48.114;-1.684;2023-02-28T10:02:02;9.80;;;8.50;;
52574;SDS011;38468;48.114;-1.684;2023-02-28T10:06:29;11.52;;;7.95;;
52574;SDS011;38468;48.114;-1.684;2023-02-28T10:11:00;10.00;;;8.05;;
52574;SDS011;38468;48.114;-1.684;2023-02-28T10:13:05;10.15;;;7.75;;
52574;SDS011;38468;48.114;-1.684;2023-02-28T10:15:19;8.13;;;7.32;;
52574;SDS011;38468;48.114;-1.684;2023-02-28T10:17:26;8.73;;;7.80;;
52574;SDS011;38468;48.114;-1.684;2023-02-28T10:19:40;11.32;;;7.32;;
52574;SDS011;38468;48.114;-1.684;2023-02-28T10:22:05;7.93;;;7.22;;
52574;SDS011;38468;48.114;-1.684;2023-02-28T10:24:39;9.60;;;8.68;;
52574;SDS011;38468;48.114;-1.684;2023-02-28T10:26:41;12.30;;;8.57;;
52574;SDS011;38468;48.114;-1.684;2023-02-28T10:28:44;12.20;;;7.72;;
52574;SDS011;38468;48.114;-1.684;2023-02-28T10:30:49;7.93;;;7.13;;
52574;SDS011;38468;48.114;-1.684;2023-02-28T10:32:52;9.88;;;7.50;;
52574;SDS011;38468;48.114;-1.684;2023-02-28T10:37:12;8.13;;;5.97;;
52574;SDS011;38468;48.114;-1.684;2023-02-28T10:41:36;8.27;;;6.20;;
52574;SDS011;38468;48.114;-1.684;2023-02-28T10:43:43;6.80;;;6.10;;
52574;SDS011;38468;48.114;-1.684;2023-02-28T10:50:29;7.07;;;6.05;;
52574;SDS011;38468;48.114;-1.684;2023-02-28T10:52:42;6.32;;;5.80;;
52574;SDS011;38468;48.114;-1.684;2023-02-28T10:54:42;9.38;;;6.18;;
52574;SDS011;38468;48.114;-1.684;2023-02-28T10:56:43;8.73;;;6.22;;
52574;SDS011;38468;48.114;-1.684;2023-02-28T10:59:00;8.68;;;6.30;;
52574;SDS011;38468;48.114;-1.684;2023-02-28T11:01:01;6.03;;;5.35;;
52574;SDS011;38468;48.114;-1.684;2023-02-28T11:03:02;6.85;;;5.35;;
52574;SDS011;38468;48.114;-1.684;2023-02-28T11:05:43;8.25;;;4.63;;
52574;SDS011;38468;48.114;-1.684;2023-02-28T11:07:48;8.07;;;5.13;;
52574;SDS011;38468;48.114;-1.684;2023-02-28T11:09:55;7.13;;;5.22;;
52574;SDS011;38468;48.114;-1.684;2023-02-28T11:11:57;8.75;;;6.53;;
52574;SDS011;38468;48.114;-1.684;2023-02-28T11:14:03;5.05;;;3.78;;
52574;SDS011;38468;48.114;-1.684;2023-02-28T11:16:06;4.03;;;2.95;;
52574;SDS011;38468;48.114;-1.684;2023-02-28T11:20:20;16.83;;;4.05;;
52574;SDS011;38468;48.114;-1.684;2023-02-28T11:22:24;4.97;;;4.57;;
52574;SDS011;38468;48.114;-1.684;2023-02-28T11:24:35;6.28;;;4.78;;
52574;SDS011;38468;48.114;-1.684;2023-02-28T11:26:45;8.60;;;4.32;;
52574;SDS011;38468;48.114;-1.684;2023-02-28T11:28:49;3.88;;;3.53;;
52574;SDS011;38468;48.114;-1.684;2023-02-28T11:33:19;3.63;;;3.25;;
52574;SDS011;38468;48.114;-1.684;2023-02-28T11:35:27;5.28;;;3.47;;
52574;SDS011;38468;48.114;-1.684;2023-02-28T11:37:29;6.43;;;3.05;;
52574;SDS011;38468;48.114;-1.684;2023-02-28T11:39:32;5.68;;;4.18;;
52574;SDS011;38468;48.114;-1.684;2023-02-28T11:46:07;4.53;;;3.50;;
52574;SDS011;38468;48.114;-1.684;2023-02-28T11:48:30;3.65;;;3.10;;
52574;SDS011;38468;48.114;-1.684;2023-02-28T11:58:14;5.68;;;3.67;;
52574;SDS011;38468;48.114;-1.684;2023-02-28T12:00:22;5.72;;;3.28;;
52574;SDS011;38468;48.114;-1.684;2023-02-28T12:05:45;2.72;;;2.33;;
52574;SDS011;38468;48.114;-1.684;2023-02-28T12:07:56;4.18;;;2.67;;
52574;SDS011;38468;48.114;-1.684;2023-02-28T12:17:22;4.68;;;2.63;;
52574;SDS011;38468;48.114;-1.684;2023-02-28T12:19:51;3.28;;;2.95;;
52574;SDS011;38468;48.114;-1.684;2023-02-28T12:24:15;6.72;;;4.25;;
52574;SDS011;38468;48.114;-1.684;2023-02-28T12:26:40;31.05;;;22.10;;
52574;SDS011;38468;48.114;-1.684;2023-02-28T12:28:46;10.95;;;7.03;;
52574;SDS011;38468;48.114;-1.684;2023-02-28T12:30:53;10.07;;;3.33;;
52574;SDS011;38468;48.114;-1.684;2023-02-28T12:33:05;5.43;;;3.85;;
52574;SDS011;38468;48.114;-1.684;2023-02-28T12:37:13;5.18;;;3.55;;
52574;SDS011;38468;48.114;-1.684;2023-02-28T12:39:30;6.97;;;3.45;;
52574;SDS011;38468;48.114;-1.684;2023-02-28T12:41:37;4.03;;;3.22;;
52574;SDS011;38468;48.114;-1.684;2023-02-28T12:43:50;3.60;;;3.28;;
52574;SDS011;38468;48.114;-1.684;2023-02-28T12:46:00;3.25;;;2.90;;
52574;SDS011;38468;48.114;-1.684;2023-02-28T12:50:19;5.53;;;3.15;;
52574;SDS011;38468;48.114;-1.684;2023-02-28T12:52:24;2.95;;;2.75;;
52574;SDS011;38468;48.114;-1.684;2023-02-28T12:54:37;4.07;;;2.55;;
52574;SDS011;38468;48.114;-1.684;2023-02-28T12:56:43;3.60;;;2.90;;
52574;SDS011;38468;48.114;-1.684;2023-02-28T12:58:54;5.75;;;2.85;;
52574;SDS011;38468;48.114;-1.684;2023-02-28T13:01:05;3.75;;;2.97;;
52574;SDS011;38468;48.114;-1.684;2023-02-28T13:08:42;2.88;;;2.42;;
52574;SDS011;38468;48.114;-1.684;2023-02-28T13:10:53;4.72;;;2.90;;
52574;SDS011;38468;48.114;-1.684;2023-02-28T13:12:54;4.33;;;3.50;;
52574;SDS011;38468;48.114;-1.684;2023-02-28T13:15:16;3.58;;;2.55;;
52574;SDS011;38468;48.114;-1.684;2023-02-28T13:17:28;2.50;;;2.28;;
52574;SDS011;38468;48.114;-1.684;2023-02-28T13:19:30;3.15;;;2.88;;
52574;SDS011;38468;48.114;-1.684;2023-02-28T13:21:33;4.50;;;2.80;;
52574;SDS011;38468;48.114;-1.684;2023-02-28T13:25:58;5.45;;;3.22;;
52574;SDS011;38468;48.114;-1.684;2023-02-28T13:27:59;3.55;;;2.53;;
52574;SDS011;38468;48.114;-1.684;2023-02-28T13:33:04;2.97;;;2.25;;
52574;SDS011;38468;48.114;-1.684;2023-02-28T13:35:35;3.90;;;2.35;;
52574;SDS011;38468;48.114;-1.684;2023-02-28T13:37:43;3.88;;;2.83;;
52574;SDS011;38468;48.114;-1.684;2023-02-28T13:40:07;5.78;;;3.20;;
52574;SDS011;38468;48.114;-1.684;2023-02-28T13:51:45;4.53;;;3.20;;
52574;SDS011;38468;48.114;-1.684;2023-02-28T13:53:53;3.15;;;2.85;;
52574;SDS011;38468;48.114;-1.684;2023-02-28T13:56:10;4.13;;;2.95;;
52574;SDS011;38468;48.114;-1.684;2023-02-28T14:05:04;6.35;;;4.55;;
52574;SDS011;38468;48.114;-1.684;2023-02-28T14:07:16;5.22;;;4.07;;